Pagina principale
METAR-TAF:

METAR-TAF

Aeroporti :

Luxor, Egitto

latitudine: 25-40N, longitudine: 032-42E, altezza: 93 m

Osservazione

Il bollettino è stato emesso 1 ora e 55 minuti fa, alle 11:00 UTC
Vento 6 kt da nord-ovest
Temperature 26°C
Umidità 34%
Pressione 1016 hPa
Visibilità 10 km o più
nessuna nube inferiore a 1500 m e nessun cumulonembo

METAR: HELX 061100Z 31006KT CAVOK 26/09 Q1016 NOSIG

Ora: 14:55 (12:55 UTC)

Previsione

Il bollettino è stato emesso 1 ora e 55 minuti fa, alle 11:00 UTC
Previsione valida dal 06 alle 12 UTC al 07 alle 18 UTC
Vento 8 kt da nord-ovest
Visibilità 10 km o più
nessuna nube inferiore a 1500 m e nessun cumulonembo

TAF: HELX 061100Z 0612/0718 32008KT CAVOK

Osservazioni e previsioni meteorologiche di più di 4000 aeroporti (messaggi METAR e TAF).

Le stazioni disponibili sono rappresentate dai dischi gialli e rossi sulla carta.

Puntare il mouse per vedere il nome della stazione.

Clicca sopra per visualizzare le osservazioni e previsioni meteorologiche.

Per cambiare la mappa : fare clic sui pulsanti verdi con una croce nera per ingrandire, il pulsante verde con un trattino per diminuire, o sulla freccia verde per le mappe adiacenti.


METAR-TAF: